sensor_id;sensor_type;location;lat;lon;timestamp;pressure;altitude;pressure_sealevel;temperature
61189;BMP280;47054;39.716;2.904;2023-02-18T00:02:03;101836.63;;;16.09
61189;BMP280;47054;39.716;2.904;2023-02-18T00:04:47;101849.22;;;16.08
61189;BMP280;47054;39.716;2.904;2023-02-18T00:07:36;101844.97;;;16.07
61189;BMP280;47054;39.716;2.904;2023-02-18T00:10:21;101841.53;;;16.07
61189;BMP280;47054;39.716;2.904;2023-02-18T00:13:05;101839.59;;;16.07
61189;BMP280;47054;39.716;2.904;2023-02-18T00:15:50;101834.59;;;16.06
61189;BMP280;47054;39.716;2.904;2023-02-18T00:18:35;101840.59;;;16.03
61189;BMP280;47054;39.716;2.904;2023-02-18T00:21:19;101847.63;;;16.07
61189;BMP280;47054;39.716;2.904;2023-02-18T00:24:06;101833.50;;;16.07
61189;BMP280;47054;39.716;2.904;2023-02-18T00:26:51;101833.50;;;16.07
61189;BMP280;47054;39.716;2.904;2023-02-18T00:29:36;101829.22;;;16.06
61189;BMP280;47054;39.716;2.904;2023-02-18T00:32:23;101834.25;;;16.07
61189;BMP280;47054;39.716;2.904;2023-02-18T00:35:08;101827.63;;;16.05
61189;BMP280;47054;39.716;2.904;2023-02-18T00:37:52;101823.72;;;16.02
61189;BMP280;47054;39.716;2.904;2023-02-18T00:40:38;101821.06;;;16.02
61189;BMP280;47054;39.716;2.904;2023-02-18T00:43:22;101819.31;;;16.06
61189;BMP280;47054;39.716;2.904;2023-02-18T00:46:07;101826.56;;;16.06
61189;BMP280;47054;39.716;2.904;2023-02-18T00:48:52;101816.19;;;16.04
61189;BMP280;47054;39.716;2.904;2023-02-18T00:51:37;101818.53;;;16.06
61189;BMP280;47054;39.716;2.904;2023-02-18T00:54:22;101822.78;;;16.07
61189;BMP280;47054;39.716;2.904;2023-02-18T00:57:08;101817.72;;;16.05
61189;BMP280;47054;39.716;2.904;2023-02-18T00:59:53;101810.03;;;16.04
61189;BMP280;47054;39.716;2.904;2023-02-18T01:02:38;101821.19;;;16.06
61189;BMP280;47054;39.716;2.904;2023-02-18T01:05:22;101815.25;;;16.00
61189;BMP280;47054;39.716;2.904;2023-02-18T01:08:08;101813.50;;;16.04
61189;BMP280;47054;39.716;2.904;2023-02-18T01:10:54;101817.44;;;16.07
61189;BMP280;47054;39.716;2.904;2023-02-18T01:13:40;101818.06;;;16.04
61189;BMP280;47054;39.716;2.904;2023-02-18T01:16:25;101825.75;;;16.05
61189;BMP280;47054;39.716;2.904;2023-02-18T01:19:10;101820.41;;;16.05
61189;BMP280;47054;39.716;2.904;2023-02-18T01:21:56;101821.34;;;16.01
61189;BMP280;47054;39.716;2.904;2023-02-18T01:24:40;101816.50;;;16.03
61189;BMP280;47054;39.716;2.904;2023-02-18T01:27:25;101823.88;;;16.06
61189;BMP280;47054;39.716;2.904;2023-02-18T01:30:13;101820.41;;;16.05
61189;BMP280;47054;39.716;2.904;2023-02-18T01:32:59;101811.16;;;16.03
61189;BMP280;47054;39.716;2.904;2023-02-18T01:35:43;101813.03;;;16.02
61189;BMP280;47054;39.716;2.904;2023-02-18T01:38:28;101813.50;;;16.04
61189;BMP280;47054;39.716;2.904;2023-02-18T01:41:12;101811.59;;;16.05
61189;BMP280;47054;39.716;2.904;2023-02-18T01:44:18;101814.25;;;16.05
61189;BMP280;47054;39.716;2.904;2023-02-18T01:47:03;101804.06;;;15.98
61189;BMP280;47054;39.716;2.904;2023-02-18T01:49:51;101810.81;;;16.04
61189;BMP280;47054;39.716;2.904;2023-02-18T01:52:37;101812.72;;;16.04
61189;BMP280;47054;39.716;2.904;2023-02-18T01:55:22;101805.47;;;16.04
61189;BMP280;47054;39.716;2.904;2023-02-18T01:58:07;101804.22;;;16.02
61189;BMP280;47054;39.716;2.904;2023-02-18T02:00:52;101803.91;;;16.03
61189;BMP280;47054;39.716;2.904;2023-02-18T02:03:36;101805.00;;;16.02
61189;BMP280;47054;39.716;2.904;2023-02-18T02:06:24;101800.44;;;16.03
61189;BMP280;47054;39.716;2.904;2023-02-18T02:09:11;101802.00;;;16.04
61189;BMP280;47054;39.716;2.904;2023-02-18T02:12:17;101800.13;;;16.04
61189;BMP280;47054;39.716;2.904;2023-02-18T02:18:42;101793.50;;;16.02
61189;BMP280;47054;39.716;2.904;2023-02-18T02:21:57;101785.81;;;16.00
61189;BMP280;47054;39.716;2.904;2023-02-18T02:28:07;101784.25;;;15.99
61189;BMP280;47054;39.716;2.904;2023-02-18T02:31:29;101783.44;;;15.99
61189;BMP280;47054;39.716;2.904;2023-02-18T02:43:33;101784.88;;;15.96
61189;BMP280;47054;39.716;2.904;2023-02-18T02:49:27;101782.19;;;15.96
61189;BMP280;47054;39.716;2.904;2023-02-18T02:55:11;101775.56;;;15.94
61189;BMP280;47054;39.716;2.904;2023-02-18T02:57:59;101782.19;;;15.96
61189;BMP280;47054;39.716;2.904;2023-02-18T03:10:47;101785.16;;;15.95
61189;BMP280;47054;39.716;2.904;2023-02-18T03:16:52;101778.25;;;15.94
61189;BMP280;47054;39.716;2.904;2023-02-18T03:19:46;101777.94;;;15.95
61189;BMP280;47054;39.716;2.904;2023-02-18T03:22:38;101779.81;;;15.95
61189;BMP280;47054;39.716;2.904;2023-02-18T03:25:24;101770.84;;;15.91
61189;BMP280;47054;39.716;2.904;2023-02-18T03:28:19;101775.25;;;15.95
61189;BMP280;47054;39.716;2.904;2023-02-18T03:31:10;101772.56;;;15.95
61189;BMP280;47054;39.716;2.904;2023-02-18T03:34:06;101781.41;;;15.96
61189;BMP280;47054;39.716;2.904;2023-02-18T03:36:55;101766.28;;;15.91
61189;BMP280;47054;39.716;2.904;2023-02-18T03:39:44;101769.91;;;15.95
61189;BMP280;47054;39.716;2.904;2023-02-18T03:42:29;101762.34;;;15.89
61189;BMP280;47054;39.716;2.904;2023-02-18T03:45:14;101766.44;;;15.95
61189;BMP280;47054;39.716;2.904;2023-02-18T03:47:59;101764.88;;;15.94
61189;BMP280;47054;39.716;2.904;2023-02-18T03:50:43;101763.75;;;15.95
61189;BMP280;47054;39.716;2.904;2023-02-18T03:53:28;101763.75;;;15.95
61189;BMP280;47054;39.716;2.904;2023-02-18T03:56:14;101758.41;;;15.95
61189;BMP280;47054;39.716;2.904;2023-02-18T03:58:59;101744.56;;;15.84
61189;BMP280;47054;39.716;2.904;2023-02-18T04:01:43;101761.09;;;15.95
61189;BMP280;47054;39.716;2.904;2023-02-18T04:04:28;101756.84;;;15.94
61189;BMP280;47054;39.716;2.904;2023-02-18T04:07:13;101739.06;;;15.89
61189;BMP280;47054;39.716;2.904;2023-02-18T04:09:58;101744.59;;;15.93
61189;BMP280;47054;39.716;2.904;2023-02-18T04:12:43;101737.34;;;15.93
61189;BMP280;47054;39.716;2.904;2023-02-18T04:15:28;101735.28;;;15.90
61189;BMP280;47054;39.716;2.904;2023-02-18T04:18:13;101745.38;;;15.93
61189;BMP280;47054;39.716;2.904;2023-02-18T04:20:58;101740.34;;;15.92
61189;BMP280;47054;39.716;2.904;2023-02-18T04:23:43;101733.72;;;15.89
61189;BMP280;47054;39.716;2.904;2023-02-18T04:26:28;101739.53;;;15.91
61189;BMP280;47054;39.716;2.904;2023-02-18T04:29:13;101741.41;;;15.91
61189;BMP280;47054;39.716;2.904;2023-02-18T04:31:57;101748.34;;;15.92
61189;BMP280;47054;39.716;2.904;2023-02-18T04:34:42;101741.13;;;15.92
61189;BMP280;47054;39.716;2.904;2023-02-18T04:37:26;101741.13;;;15.92
61189;BMP280;47054;39.716;2.904;2023-02-18T04:40:11;101741.13;;;15.92
61189;BMP280;47054;39.716;2.904;2023-02-18T04:42:56;101737.50;;;15.88
61189;BMP280;47054;39.716;2.904;2023-02-18T04:45:41;101739.53;;;15.91
61189;BMP280;47054;39.716;2.904;2023-02-18T04:48:25;101743.00;;;15.92
61189;BMP280;47054;39.716;2.904;2023-02-18T04:51:11;101747.88;;;15.90
61189;BMP280;47054;39.716;2.904;2023-02-18T04:53:55;101744.09;;;15.91
61189;BMP280;47054;39.716;2.904;2023-02-18T04:56:40;101744.09;;;15.91
61189;BMP280;47054;39.716;2.904;2023-02-18T04:59:24;101741.28;;;15.87
61189;BMP280;47054;39.716;2.904;2023-02-18T05:02:09;101741.59;;;15.86
61189;BMP280;47054;39.716;2.904;2023-02-18T05:04:53;101750.25;;;15.91
61189;BMP280;47054;39.716;2.904;2023-02-18T05:07:38;101744.44;;;15.89
61189;BMP280;47054;39.716;2.904;2023-02-18T05:10:23;101748.22;;;15.88
61189;BMP280;47054;39.716;2.904;2023-02-18T05:13:08;101753.56;;;15.88
61189;BMP280;47054;39.716;2.904;2023-02-18T05:15:52;101757.00;;;15.89
61189;BMP280;47054;39.716;2.904;2023-02-18T05:18:36;101745.53;;;15.88
61189;BMP280;47054;39.716;2.904;2023-02-18T05:21:21;101748.97;;;15.89
61189;BMP280;47054;39.716;2.904;2023-02-18T05:24:05;101755.13;;;15.89
61189;BMP280;47054;39.716;2.904;2023-02-18T05:26:51;101751.97;;;15.87
61189;BMP280;47054;39.716;2.904;2023-02-18T05:29:36;101754.66;;;15.87
61189;BMP280;47054;39.716;2.904;2023-02-18T05:32:21;101758.44;;;15.86
61189;BMP280;47054;39.716;2.904;2023-02-18T05:35:06;101758.59;;;15.81
61189;BMP280;47054;39.716;2.904;2023-02-18T05:37:51;101760.19;;;15.82
61189;BMP280;47054;39.716;2.904;2023-02-18T05:40:36;101762.50;;;15.84
61189;BMP280;47054;39.716;2.904;2023-02-18T05:43:20;101760.97;;;15.83
61189;BMP280;47054;39.716;2.904;2023-02-18T05:46:05;101764.88;;;15.85
61189;BMP280;47054;39.716;2.904;2023-02-18T05:48:49;101771.81;;;15.86
61189;BMP280;47054;39.716;2.904;2023-02-18T05:51:34;101767.56;;;15.85
61189;BMP280;47054;39.716;2.904;2023-02-18T05:54:18;101768.22;;;15.82
61189;BMP280;47054;39.716;2.904;2023-02-18T05:57:03;101760.47;;;15.81
61189;BMP280;47054;39.716;2.904;2023-02-18T05:59:48;101770.22;;;15.85
61189;BMP280;47054;39.716;2.904;2023-02-18T06:02:32;101750.28;;;15.83
61189;BMP280;47054;39.716;2.904;2023-02-18T06:05:17;101760.97;;;15.83
61189;BMP280;47054;39.716;2.904;2023-02-18T06:08:01;101756.41;;;15.83
61189;BMP280;47054;39.716;2.904;2023-02-18T06:10:46;101754.03;;;15.82
61189;BMP280;47054;39.716;2.904;2023-02-18T06:13:31;101758.59;;;15.81
61189;BMP280;47054;39.716;2.904;2023-02-18T06:16:15;101758.31;;;15.83
61189;BMP280;47054;39.716;2.904;2023-02-18T06:19:00;101754.97;;;15.77
61189;BMP280;47054;39.716;2.904;2023-02-18T06:21:44;101758.88;;;15.80
61189;BMP280;47054;39.716;2.904;2023-02-18T06:24:30;101763.94;;;15.81
61189;BMP280;47054;39.716;2.904;2023-02-18T06:27:14;101755.94;;;15.81
61189;BMP280;47054;39.716;2.904;2023-02-18T06:29:59;101761.56;;;15.80
61189;BMP280;47054;39.716;2.904;2023-02-18T06:32:43;101760.47;;;15.81
61189;BMP280;47054;39.716;2.904;2023-02-18T06:35:28;101769.59;;;15.80
61189;BMP280;47054;39.716;2.904;2023-02-18T06:38:12;101779.22;;;15.81
61189;BMP280;47054;39.716;2.904;2023-02-18T06:40:57;101776.06;;;15.79
61189;BMP280;47054;39.716;2.904;2023-02-18T06:43:41;101778.72;;;15.79
61189;BMP280;47054;39.716;2.904;2023-02-18T06:46:26;101777.47;;;15.76
61189;BMP280;47054;39.716;2.904;2023-02-18T06:49:11;101778.25;;;15.77
61189;BMP280;47054;39.716;2.904;2023-02-18T06:51:55;101778.59;;;15.75
61189;BMP280;47054;39.716;2.904;2023-02-18T06:54:40;101789.44;;;15.79
61189;BMP280;47054;39.716;2.904;2023-02-18T06:57:24;101787.09;;;15.77
61189;BMP280;47054;39.716;2.904;2023-02-18T07:00:10;101789.75;;;15.77
61189;BMP280;47054;39.716;2.904;2023-02-18T07:02:54;101800.47;;;15.77
61189;BMP280;47054;39.716;2.904;2023-02-18T07:05:40;101803.94;;;15.78
61189;BMP280;47054;39.716;2.904;2023-02-18T07:08:24;101801.88;;;15.75
61189;BMP280;47054;39.716;2.904;2023-02-18T07:11:09;101796.19;;;15.76
61189;BMP280;47054;39.716;2.904;2023-02-18T07:13:54;101805.00;;;15.77
61189;BMP280;47054;39.716;2.904;2023-02-18T07:16:39;101805.81;;;15.77
61189;BMP280;47054;39.716;2.904;2023-02-18T07:19:24;101805.63;;;15.74
61189;BMP280;47054;39.716;2.904;2023-02-18T07:22:08;101817.59;;;15.76
61189;BMP280;47054;39.716;2.904;2023-02-18T07:24:53;101819.50;;;15.76
61189;BMP280;47054;39.716;2.904;2023-02-18T07:27:38;101819.78;;;15.74
61189;BMP280;47054;39.716;2.904;2023-02-18T07:30:22;101813.34;;;15.67
61189;BMP280;47054;39.716;2.904;2023-02-18T07:33:07;101817.13;;;15.74
61189;BMP280;47054;39.716;2.904;2023-02-18T07:35:56;101817.91;;;15.75
61189;BMP280;47054;39.716;2.904;2023-02-18T07:38:42;101812.56;;;15.75
61189;BMP280;47054;39.716;2.904;2023-02-18T07:41:26;101820.13;;;15.73
61189;BMP280;47054;39.716;2.904;2023-02-18T07:44:12;101823.56;;;15.73
61189;BMP280;47054;39.716;2.904;2023-02-18T07:46:56;101816.31;;;15.74
61189;BMP280;47054;39.716;2.904;2023-02-18T07:49:41;101817.44;;;15.73
61189;BMP280;47054;39.716;2.904;2023-02-18T07:52:26;101828.91;;;15.73
61189;BMP280;47054;39.716;2.904;2023-02-18T07:55:10;101817.44;;;15.73
61189;BMP280;47054;39.716;2.904;2023-02-18T07:57:55;101813.66;;;15.74
61189;BMP280;47054;39.716;2.904;2023-02-18T08:00:44;101817.78;;;15.71
61189;BMP280;47054;39.716;2.904;2023-02-18T08:03:31;101820.13;;;15.73
61189;BMP280;47054;39.716;2.904;2023-02-18T08:06:41;101816.31;;;15.74
61189;BMP280;47054;39.716;2.904;2023-02-18T08:09:26;101821.22;;;15.72
61189;BMP280;47054;39.716;2.904;2023-02-18T08:12:11;101817.78;;;15.71
61189;BMP280;47054;39.716;2.904;2023-02-18T08:14:55;101826.88;;;15.70
61189;BMP280;47054;39.716;2.904;2023-02-18T08:17:40;101835.41;;;15.72
61189;BMP280;47054;39.716;2.904;2023-02-18T08:20:25;101838.06;;;15.72
61189;BMP280;47054;39.716;2.904;2023-02-18T08:23:28;101830.06;;;15.72
61189;BMP280;47054;39.716;2.904;2023-02-18T08:26:12;101824.84;;;15.67
61189;BMP280;47054;39.716;2.904;2023-02-18T08:29:00;101835.69;;;15.71
61189;BMP280;47054;39.716;2.904;2023-02-18T08:31:46;101835.69;;;15.71
61189;BMP280;47054;39.716;2.904;2023-02-18T08:34:30;101835.22;;;15.69
61189;BMP280;47054;39.716;2.904;2023-02-18T08:37:15;101838.69;;;15.69
61189;BMP280;47054;39.716;2.904;2023-02-18T08:40:01;101837.56;;;15.70
61189;BMP280;47054;39.716;2.904;2023-02-18T08:42:45;101836.50;;;15.71
61189;BMP280;47054;39.716;2.904;2023-02-18T08:45:30;101832.22;;;15.70
61189;BMP280;47054;39.716;2.904;2023-02-18T08:48:14;101836.78;;;15.70
61189;BMP280;47054;39.716;2.904;2023-02-18T08:51:08;101839.44;;;15.70
61189;BMP280;47054;39.716;2.904;2023-02-18T08:53:53;101838.38;;;15.71
61189;BMP280;47054;39.716;2.904;2023-02-18T08:56:38;101836.03;;;15.69
61189;BMP280;47054;39.716;2.904;2023-02-18T08:59:23;101824.53;;;15.69
61189;BMP280;47054;39.716;2.904;2023-02-18T09:02:12;101817.28;;;15.69
61189;BMP280;47054;39.716;2.904;2023-02-18T09:04:57;101833.94;;;15.66
61189;BMP280;47054;39.716;2.904;2023-02-18T09:07:41;101832.53;;;15.69
61189;BMP280;47054;39.716;2.904;2023-02-18T09:10:26;101837.91;;;15.69
61189;BMP280;47054;39.716;2.904;2023-02-18T09:13:11;101834.28;;;15.65
61189;BMP280;47054;39.716;2.904;2023-02-18T09:16:16;101835.06;;;15.65
61189;BMP280;47054;39.716;2.904;2023-02-18T09:19:03;101838.22;;;15.67
61189;BMP280;47054;39.716;2.904;2023-02-18T09:21:49;101853.94;;;15.69
61189;BMP280;47054;39.716;2.904;2023-02-18T09:24:39;101842.31;;;15.65
61189;BMP280;47054;39.716;2.904;2023-02-18T09:27:25;101835.69;;;15.62
61189;BMP280;47054;39.716;2.904;2023-02-18T09:30:10;101844.66;;;15.66
61189;BMP280;47054;39.716;2.904;2023-02-18T09:32:55;101843.56;;;15.67
61189;BMP280;47054;39.716;2.904;2023-02-18T09:35:44;101844.34;;;15.68
61189;BMP280;47054;39.716;2.904;2023-02-18T09:38:28;101830.34;;;15.62
61189;BMP280;47054;39.716;2.904;2023-02-18T09:41:26;101845.44;;;15.67
61189;BMP280;47054;39.716;2.904;2023-02-18T09:47:05;101838.22;;;15.67
61189;BMP280;47054;39.716;2.904;2023-02-18T09:49:57;101844.66;;;15.66
61189;BMP280;47054;39.716;2.904;2023-02-18T09:52:42;101845.78;;;15.65
61189;BMP280;47054;39.716;2.904;2023-02-18T09:55:30;101843.88;;;15.66
61189;BMP280;47054;39.716;2.904;2023-02-18T09:58:19;101844.66;;;15.66
61189;BMP280;47054;39.716;2.904;2023-02-18T10:01:10;101847.31;;;15.66
61189;BMP280;47054;39.716;2.904;2023-02-18T10:04:03;101845.78;;;15.65
61189;BMP280;47054;39.716;2.904;2023-02-18T10:06:52;101851.13;;;15.65
61189;BMP280;47054;39.716;2.904;2023-02-18T10:09:37;101842.59;;;15.63
61189;BMP280;47054;39.716;2.904;2023-02-18T10:12:24;101838.34;;;15.62
61189;BMP280;47054;39.716;2.904;2023-02-18T10:15:20;101837.44;;;15.67
61189;BMP280;47054;39.716;2.904;2023-02-18T10:18:16;101843.88;;;15.66
61189;BMP280;47054;39.716;2.904;2023-02-18T10:21:09;101838.84;;;15.64
61189;BMP280;47054;39.716;2.904;2023-02-18T10:27:35;101830.34;;;15.62
61189;BMP280;47054;39.716;2.904;2023-02-18T10:39:17;101816.16;;;15.62
61189;BMP280;47054;39.716;2.904;2023-02-18T10:42:27;101821.19;;;15.63
61189;BMP280;47054;39.716;2.904;2023-02-18T10:51:55;101811.75;;;15.57
61189;BMP280;47054;39.716;2.904;2023-02-18T10:57:51;101814.91;;;15.59
61189;BMP280;47054;39.716;2.904;2023-02-18T11:00:38;101811.16;;;15.60
61189;BMP280;47054;39.716;2.904;2023-02-18T11:06:37;101809.25;;;15.61
61189;BMP280;47054;39.716;2.904;2023-02-18T11:15:27;101793.22;;;15.61
61189;BMP280;47054;39.716;2.904;2023-02-18T11:18:27;101800.59;;;15.64
61189;BMP280;47054;39.716;2.904;2023-02-18T11:24:15;101788.81;;;15.65
61189;BMP280;47054;39.716;2.904;2023-02-18T11:27:00;101791.00;;;15.63
61189;BMP280;47054;39.716;2.904;2023-02-18T11:29:44;101780.00;;;15.64
61189;BMP280;47054;39.716;2.904;2023-02-18T11:32:34;101785.81;;;15.66
61189;BMP280;47054;39.716;2.904;2023-02-18T11:35:22;101782.81;;;15.68
61189;BMP280;47054;39.716;2.904;2023-02-18T11:38:20;101772.13;;;15.68
61189;BMP280;47054;39.716;2.904;2023-02-18T11:41:08;101775.75;;;15.63
61189;BMP280;47054;39.716;2.904;2023-02-18T11:43:54;101774.50;;;15.69
61189;BMP280;47054;39.716;2.904;2023-02-18T11:46:55;101776.06;;;15.70
61189;BMP280;47054;39.716;2.904;2023-02-18T11:49:42;101775.78;;;15.72
61189;BMP280;47054;39.716;2.904;2023-02-18T11:52:41;101765.50;;;15.74
61189;BMP280;47054;39.716;2.904;2023-02-18T11:55:27;101765.88;;;15.72
61189;BMP280;47054;39.716;2.904;2023-02-18T11:58:14;101764.72;;;15.73
61189;BMP280;47054;39.716;2.904;2023-02-18T12:00:59;101760.16;;;15.74
61189;BMP280;47054;39.716;2.904;2023-02-18T12:09:54;101758.75;;;15.76
61189;BMP280;47054;39.716;2.904;2023-02-18T12:12:46;101756.53;;;15.78
61189;BMP280;47054;39.716;2.904;2023-02-18T12:22:41;101738.16;;;15.77
61189;BMP280;47054;39.716;2.904;2023-02-18T12:29:01;101727.13;;;15.78
61189;BMP280;47054;39.716;2.904;2023-02-18T12:35:14;101712.66;;;15.79
61189;BMP280;47054;39.716;2.904;2023-02-18T12:50:08;101687.00;;;15.87
61189;BMP280;47054;39.716;2.904;2023-02-18T12:56:27;101685.59;;;15.81
61189;BMP280;47054;39.716;2.904;2023-02-18T13:08:40;101654.72;;;15.92
61189;BMP280;47054;39.716;2.904;2023-02-18T13:14:29;101647.91;;;15.94
61189;BMP280;47054;39.716;2.904;2023-02-18T13:17:17;101646.53;;;15.97
61189;BMP280;47054;39.716;2.904;2023-02-18T13:20:39;101629.38;;;15.98
61189;BMP280;47054;39.716;2.904;2023-02-18T13:23:31;101631.75;;;15.99
61189;BMP280;47054;39.716;2.904;2023-02-18T13:26:18;101630.63;;;16.00
61189;BMP280;47054;39.716;2.904;2023-02-18T13:29:44;101623.34;;;16.01
61189;BMP280;47054;39.716;2.904;2023-02-18T13:36:04;101605.53;;;16.05
61189;BMP280;47054;39.716;2.904;2023-02-18T13:38:48;101600.19;;;16.05
61189;BMP280;47054;39.716;2.904;2023-02-18T13:41:39;101596.44;;;16.06
61189;BMP280;47054;39.716;2.904;2023-02-18T13:47:09;101582.09;;;16.10
61189;BMP280;47054;39.716;2.904;2023-02-18T13:49:54;101576.28;;;16.08
61189;BMP280;47054;39.716;2.904;2023-02-18T13:52:39;101571.38;;;16.10
61189;BMP280;47054;39.716;2.904;2023-02-18T13:59:08;101563.16;;;16.15
61189;BMP280;47054;39.716;2.904;2023-02-18T14:01:53;101562.84;;;16.17
61189;BMP280;47054;39.716;2.904;2023-02-18T14:16:22;101538.72;;;16.25
61189;BMP280;47054;39.716;2.904;2023-02-18T14:19:26;101544.06;;;16.25
61189;BMP280;47054;39.716;2.904;2023-02-18T14:34:33;101550.16;;;16.35
61189;BMP280;47054;39.716;2.904;2023-02-18T14:37:38;101542.88;;;16.35
61189;BMP280;47054;39.716;2.904;2023-02-18T14:52:27;101532.00;;;16.40
61189;BMP280;47054;39.716;2.904;2023-02-18T14:55:24;101534.78;;;16.44
61189;BMP280;47054;39.716;2.904;2023-02-18T15:04:03;101517.31;;;16.46
61189;BMP280;47054;39.716;2.904;2023-02-18T15:06:58;101510.53;;;16.49
61189;BMP280;47054;39.716;2.904;2023-02-18T15:09:48;101517.75;;;16.48
61189;BMP280;47054;39.716;2.904;2023-02-18T15:12:33;101513.19;;;16.49
61189;BMP280;47054;39.716;2.904;2023-02-18T15:15:19;101512.06;;;16.50
61189;BMP280;47054;39.716;2.904;2023-02-18T15:18:04;101512.06;;;16.50
61189;BMP280;47054;39.716;2.904;2023-02-18T15:20:56;101507.38;;;16.47
61189;BMP280;47054;39.716;2.904;2023-02-18T15:23:43;101519.78;;;16.51
61189;BMP280;47054;39.716;2.904;2023-02-18T15:26:29;101515.41;;;16.47
61189;BMP280;47054;39.716;2.904;2023-02-18T15:29:17;101520.22;;;16.53
61189;BMP280;47054;39.716;2.904;2023-02-18T15:32:23;101513.78;;;16.54
61189;BMP280;47054;39.716;2.904;2023-02-18T15:35:16;101514.88;;;16.53
61189;BMP280;47054;39.716;2.904;2023-02-18T15:38:01;101529.84;;;16.54
61189;BMP280;47054;39.716;2.904;2023-02-18T15:40:50;101514.75;;;16.50
61189;BMP280;47054;39.716;2.904;2023-02-18T15:43:35;101529.53;;;16.56
61189;BMP280;47054;39.716;2.904;2023-02-18T15:46:21;101528.06;;;16.58
61189;BMP280;47054;39.716;2.904;2023-02-18T15:49:11;101528.88;;;16.59
61189;BMP280;47054;39.716;2.904;2023-02-18T15:51:59;101524.28;;;16.59
61189;BMP280;47054;39.716;2.904;2023-02-18T15:54:44;101532.78;;;16.61
61189;BMP280;47054;39.716;2.904;2023-02-18T15:57:29;101531.66;;;16.62
61189;BMP280;47054;39.716;2.904;2023-02-18T16:00:26;101534.50;;;16.66
61189;BMP280;47054;39.716;2.904;2023-02-18T16:03:23;101533.22;;;16.63
61189;BMP280;47054;39.716;2.904;2023-02-18T16:12:04;101534.50;;;16.66
61189;BMP280;47054;39.716;2.904;2023-02-18T16:14:57;101537.59;;;16.68
61189;BMP280;47054;39.716;2.904;2023-02-18T16:17:44;101533.03;;;16.68
61189;BMP280;47054;39.716;2.904;2023-02-18T16:20:34;101533.47;;;16.70
61189;BMP280;47054;39.716;2.904;2023-02-18T16:23:41;101537.75;;;16.71
61189;BMP280;47054;39.716;2.904;2023-02-18T16:29:26;101540.09;;;16.73
61189;BMP280;47054;39.716;2.904;2023-02-18T16:32:17;101536.94;;;16.71
61189;BMP280;47054;39.716;2.904;2023-02-18T16:35:01;101535.38;;;16.70
61189;BMP280;47054;39.716;2.904;2023-02-18T16:37:47;101532.38;;;16.71
61189;BMP280;47054;39.716;2.904;2023-02-18T16:40:36;101548.56;;;16.75
61189;BMP280;47054;39.716;2.904;2023-02-18T16:43:24;101540.53;;;16.75
61189;BMP280;47054;39.716;2.904;2023-02-18T16:46:17;101541.00;;;16.77
61189;BMP280;47054;39.716;2.904;2023-02-18T16:49:02;101529.50;;;16.76
61189;BMP280;47054;39.716;2.904;2023-02-18T16:51:47;101540.66;;;16.78
61189;BMP280;47054;39.716;2.904;2023-02-18T16:54:32;101535.63;;;16.77
61189;BMP280;47054;39.716;2.904;2023-02-18T16:57:17;101537.97;;;16.78
61189;BMP280;47054;39.716;2.904;2023-02-18T17:00:02;101536.09;;;16.79
61189;BMP280;47054;39.716;2.904;2023-02-18T17:02:50;101538.44;;;16.80
61189;BMP280;47054;39.716;2.904;2023-02-18T17:05:35;101530.72;;;16.79
61189;BMP280;47054;39.716;2.904;2023-02-18T17:08:25;101535.00;;;16.80
61189;BMP280;47054;39.716;2.904;2023-02-18T17:14:01;101541.91;;;16.81
61189;BMP280;47054;39.716;2.904;2023-02-18T17:16:50;101531.19;;;16.81
61189;BMP280;47054;39.716;2.904;2023-02-18T17:19:35;101535.44;;;16.82
61189;BMP280;47054;39.716;2.904;2023-02-18T17:22:20;101536.09;;;16.79
61189;BMP280;47054;39.716;2.904;2023-02-18T17:25:11;101543.78;;;16.80
61189;BMP280;47054;39.716;2.904;2023-02-18T17:27:58;101541.56;;;16.82
61189;BMP280;47054;39.716;2.904;2023-02-18T17:30:42;101540.00;;;16.81
61189;BMP280;47054;39.716;2.904;2023-02-18T17:33:27;101542.69;;;16.81
61189;BMP280;47054;39.716;2.904;2023-02-18T17:36:11;101542.69;;;16.81
61189;BMP280;47054;39.716;2.904;2023-02-18T17:38:57;101531.41;;;16.76
61189;BMP280;47054;39.716;2.904;2023-02-18T17:41:42;101540.00;;;16.81
61189;BMP280;47054;39.716;2.904;2023-02-18T17:44:26;101538.13;;;16.82
61189;BMP280;47054;39.716;2.904;2023-02-18T17:47:12;101536.53;;;16.81
61189;BMP280;47054;39.716;2.904;2023-02-18T17:49:56;101539.22;;;16.81
61189;BMP280;47054;39.716;2.904;2023-02-18T17:52:41;101535.75;;;16.80
61189;BMP280;47054;39.716;2.904;2023-02-18T17:55:31;101541.91;;;16.81
61189;BMP280;47054;39.716;2.904;2023-02-18T17:58:16;101543.78;;;16.80
61189;BMP280;47054;39.716;2.904;2023-02-18T18:01:01;101547.25;;;16.81
61189;BMP280;47054;39.716;2.904;2023-02-18T18:03:45;101551.81;;;16.80
61189;BMP280;47054;39.716;2.904;2023-02-18T18:06:30;101546.81;;;16.79
61189;BMP280;47054;39.716;2.904;2023-02-18T18:09:19;101556.72;;;16.78
61189;BMP280;47054;39.716;2.904;2023-02-18T18:12:03;101556.41;;;16.80
61189;BMP280;47054;39.716;2.904;2023-02-18T18:14:49;101555.63;;;16.79
61189;BMP280;47054;39.716;2.904;2023-02-18T18:17:33;101562.88;;;16.79
61189;BMP280;47054;39.716;2.904;2023-02-18T18:20:19;101560.19;;;16.79
61189;BMP280;47054;39.716;2.904;2023-02-18T18:23:05;101556.72;;;16.78
61189;BMP280;47054;39.716;2.904;2023-02-18T18:25:55;101572.50;;;16.80
61189;BMP280;47054;39.716;2.904;2023-02-18T18:28:40;101570.13;;;16.78
61189;BMP280;47054;39.716;2.904;2023-02-18T18:31:24;101561.97;;;16.75
61189;BMP280;47054;39.716;2.904;2023-02-18T18:34:09;101564.66;;;16.75
61189;BMP280;47054;39.716;2.904;2023-02-18T18:36:53;101567.31;;;16.75
61189;BMP280;47054;39.716;2.904;2023-02-18T18:39:38;101570.13;;;16.78
61189;BMP280;47054;39.716;2.904;2023-02-18T18:42:22;101574.69;;;16.78
61189;BMP280;47054;39.716;2.904;2023-02-18T18:45:15;101572.50;;;16.80
61189;BMP280;47054;39.716;2.904;2023-02-18T18:48:00;101563.84;;;16.74
61189;BMP280;47054;39.716;2.904;2023-02-18T18:50:46;101575.34;;;16.75
61189;BMP280;47054;39.716;2.904;2023-02-18T18:53:33;101583.50;;;16.78
61189;BMP280;47054;39.716;2.904;2023-02-18T18:56:18;101572.38;;;16.76